Time;durP1;ratioP1;P1;durP2;ratioP2;P2;SDS_P1;SDS_P2;PMS_P1;PMS_P2;Temp;Humidity;BMP_temperature;BMP_pressure;BME280_temperature;BME280_humidity;BME280_pressure;Samples;Min_cycle;Max_cycle;Signal;HPM_P1;HPM_P2
2022/07/08 00:01:33;;;;;;;6.28;1.75;;;13.90;99.90;;;;;;5085254;28;20031;-72
2022/07/08 00:03:59;;;;;;;5.60;1.92;;;13.80;99.90;;;;;;5089908;28;20149;-71
2022/07/08 00:06:25;;;;;;;6.93;1.80;;;13.80;99.90;;;;;;5093768;28;20055;-72
2022/07/08 00:08:51;;;;;;;5.22;1.80;;;13.80;99.90;;;;;;5094271;28;20036;-72
2022/07/08 00:11:17;;;;;;;5.35;1.63;;;13.70;99.90;;;;;;5094376;28;20537;-72
2022/07/08 00:13:42;;;;;;;5.68;1.52;;;13.70;99.90;;;;;;5093902;28;20024;-72
2022/07/08 00:16:08;;;;;;;5.88;2.10;;;13.70;99.90;;;;;;5094264;28;20399;-72
2022/07/08 00:18:33;;;;;;;7.07;2.63;;;13.60;99.90;;;;;;5094575;28;20036;-72
2022/07/08 00:20:59;;;;;;;10.63;2.88;;;13.70;99.90;;;;;;5093287;28;20023;-72
2022/07/08 00:23:25;;;;;;;6.35;1.83;;;13.60;99.90;;;;;;5094356;28;20106;-72
2022/07/08 00:25:50;;;;;;;7.20;1.92;;;13.50;99.90;;;;;;5094221;28;20024;-72
2022/07/08 00:28:16;;;;;;;3.28;1.65;;;13.50;99.90;;;;;;5093353;28;20032;-72
2022/07/08 00:30:41;;;;;;;6.40;1.90;;;13.50;99.90;;;;;;5094544;28;20536;-72
2022/07/08 00:33:07;;;;;;;4.70;2.38;;;13.50;99.90;;;;;;5094070;28;20396;-71
2022/07/08 00:35:32;;;;;;;3.88;1.50;;;13.40;99.90;;;;;;5093615;28;20012;-72
2022/07/08 00:37:58;;;;;;;4.80;1.52;;;13.30;99.90;;;;;;5093853;28;20024;-72
2022/07/08 00:40:23;;;;;;;7.13;1.88;;;13.30;99.90;;;;;;5094157;28;20107;-71
2022/07/08 00:42:49;;;;;;;5.55;2.05;;;13.20;99.90;;;;;;5092910;28;20107;-70
2022/07/08 00:45:16;;;;;;;5.57;2.45;;;13.20;99.90;;;;;;5093759;28;20027;-71
2022/07/08 00:47:41;;;;;;;4.63;1.95;;;13.10;99.90;;;;;;5093986;28;20028;-71
2022/07/08 00:50:09;;;;;;;8.05;2.33;;;13.10;99.90;;;;;;5093043;28;20019;-71
2022/07/08 00:52:38;;;;;;;7.97;2.40;;;13.00;99.90;;;;;;5093881;28;20024;-71
2022/07/08 00:55:05;;;;;;;5.32;1.98;;;13.00;99.90;;;;;;5092676;28;20028;-72
2022/07/08 00:57:31;;;;;;;4.65;1.90;;;13.00;99.90;;;;;;5093512;28;20028;-71
2022/07/08 00:59:57;;;;;;;4.38;1.90;;;13.00;99.90;;;;;;5092935;28;20388;-72
2022/07/08 01:02:23;;;;;;;8.48;2.15;;;12.90;99.90;;;;;;5078838;28;20032;-72
2022/07/08 01:04:50;;;;;;;7.63;2.25;;;12.90;99.90;;;;;;5093318;28;20364;-74
2022/07/08 01:07:15;;;;;;;6.32;2.17;;;12.90;99.90;;;;;;5093134;28;20397;-71
2022/07/08 01:09:41;;;;;;;8.57;2.30;;;12.90;99.90;;;;;;5092848;28;20027;-71
2022/07/08 01:12:07;;;;;;;5.03;1.77;;;12.90;99.90;;;;;;5093096;28;20024;-72
2022/07/08 01:14:33;;;;;;;5.38;1.95;;;12.90;99.90;;;;;;5093446;28;20020;-72
2022/07/08 01:16:58;;;;;;;10.77;2.42;;;12.90;99.90;;;;;;5092526;28;20034;-72
2022/07/08 01:19:24;;;;;;;6.53;2.72;;;12.90;99.90;;;;;;5093068;28;20043;-71
2022/07/08 01:21:50;;;;;;;6.80;3.15;;;12.90;99.90;;;;;;5093030;28;20028;-72
2022/07/08 01:24:16;;;;;;;5.43;2.38;;;12.80;99.90;;;;;;5092089;28;20016;-72
2022/07/08 01:26:42;;;;;;;4.20;2.53;;;12.80;99.90;;;;;;5079346;28;20383;-72
2022/07/08 01:29:12;;;;;;;6.35;2.28;;;12.80;99.90;;;;;;5093023;28;20043;-72
2022/07/08 01:31:37;;;;;;;7.22;2.60;;;12.70;99.90;;;;;;5092417;28;20016;-72
2022/07/08 01:34:03;;;;;;;4.90;2.28;;;12.70;99.90;;;;;;5092656;28;20024;-71
2022/07/08 01:36:31;;;;;;;4.57;2.30;;;12.70;99.90;;;;;;5092877;28;20030;-71
2022/07/08 01:38:57;;;;;;;4.57;2.30;;;12.70;99.90;;;;;;5091960;28;20038;-72
2022/07/08 01:41:22;;;;;;;8.50;2.50;;;12.70;99.90;;;;;;5092849;28;20425;-72
2022/07/08 01:43:48;;;;;;;6.47;2.30;;;12.60;99.90;;;;;;5092473;28;20399;-71
2022/07/08 01:46:14;;;;;;;13.35;2.97;;;12.60;99.90;;;;;;5092173;28;20383;-71
2022/07/08 01:48:39;;;;;;;5.75;2.97;;;12.60;99.90;;;;;;5092548;28;20032;-71
2022/07/08 01:51:05;;;;;;;5.68;2.75;;;12.60;99.90;;;;;;5090976;28;20029;-71
2022/07/08 01:53:31;;;;;;;6.82;2.47;;;12.60;99.90;;;;;;5092594;28;20078;-71
2022/07/08 01:56:02;;;;;;;4.50;2.38;;;12.60;99.90;;;;;;5092477;28;20116;-72
2022/07/08 01:58:27;;;;;;;3.33;2.50;;;12.60;99.90;;;;;;5092116;28;20110;-72
2022/07/08 02:00:53;;;;;;;10.27;2.38;;;12.60;99.90;;;;;;5088495;28;20496;-72
2022/07/08 02:03:19;;;;;;;6.53;2.47;;;12.60;99.90;;;;;;5082559;28;20078;-71
2022/07/08 02:05:44;;;;;;;6.53;2.85;;;12.50;99.90;;;;;;5091684;28;20044;-71
2022/07/08 02:08:10;;;;;;;5.00;2.35;;;12.60;99.90;;;;;;5092115;28;20372;-71
2022/07/08 02:13:33;;;;;;;5.55;2.45;;;12.60;99.90;;;;;;5028225;28;20043;-72
2022/07/08 02:15:59;;;;;;;4.47;2.28;;;12.50;99.90;;;;;;5088971;28;20020;-72
2022/07/08 02:18:24;;;;;;;10.23;2.70;;;12.50;99.90;;;;;;5092282;28;20082;-71
2022/07/08 02:20:51;;;;;;;13.27;2.40;;;12.40;99.90;;;;;;5085587;28;20028;-71
2022/07/08 02:23:16;;;;;;;5.65;2.42;;;12.40;99.90;;;;;;5079587;28;20477;-72
2022/07/08 02:25:42;;;;;;;6.68;2.25;;;12.40;99.90;;;;;;5083995;28;20063;-71
2022/07/08 02:28:07;;;;;;;6.97;2.28;;;12.40;99.90;;;;;;5077270;28;20040;-71
2022/07/08 02:30:33;;;;;;;9.93;2.35;;;12.40;99.90;;;;;;5092283;28;20074;-71
2022/07/08 02:32:58;;;;;;;11.43;2.72;;;12.40;99.90;;;;;;5077626;28;20035;-71
2022/07/08 02:35:24;;;;;;;7.57;2.60;;;12.40;99.90;;;;;;5091160;28;20035;-71
2022/07/08 02:37:49;;;;;;;7.97;3.05;;;12.30;99.90;;;;;;5092033;28;20051;-71
2022/07/08 02:40:15;;;;;;;6.45;2.65;;;12.30;99.90;;;;;;5092023;28;20026;-72
2022/07/08 02:42:40;;;;;;;5.70;2.65;;;12.30;99.90;;;;;;5092237;28;20021;-71
2022/07/08 02:45:07;;;;;;;12.23;3.72;;;12.30;99.90;;;;;;5091751;28;20103;-71
2022/07/08 02:47:33;;;;;;;11.77;3.75;;;12.30;99.90;;;;;;5091404;28;20044;-71
2022/07/08 02:49:59;;;;;;;11.98;3.15;;;12.20;99.90;;;;;;5078035;28;20021;-71
2022/07/08 02:52:24;;;;;;;6.10;2.63;;;12.20;99.90;;;;;;5091522;28;20429;-71
2022/07/08 02:54:51;;;;;;;7.22;2.70;;;12.20;99.90;;;;;;5091146;28;20472;-71
2022/07/08 02:57:16;;;;;;;7.38;3.00;;;12.20;99.90;;;;;;5091962;28;20044;-71
2022/07/08 02:59:44;;;;;;;6.72;3.05;;;12.20;99.90;;;;;;5092078;28;20471;-71
2022/07/08 03:02:09;;;;;;;7.15;3.08;;;12.20;99.90;;;;;;5090755;28;20069;-71
2022/07/08 03:04:35;;;;;;;9.73;3.45;;;12.20;99.90;;;;;;5091871;28;20036;-71
2022/07/08 03:07:01;;;;;;;10.27;3.10;;;12.20;99.90;;;;;;5091325;28;20048;-72
2022/07/08 03:09:26;;;;;;;6.22;2.45;;;12.20;99.90;;;;;;5090983;28;20043;-71
2022/07/08 03:11:52;;;;;;;6.90;2.63;;;12.20;99.90;;;;;;5091711;28;20019;-71
2022/07/08 03:14:17;;;;;;;6.85;2.83;;;12.20;99.90;;;;;;5091564;28;20356;-71
2022/07/08 03:16:43;;;;;;;5.30;2.50;;;12.20;99.90;;;;;;5091092;28;20054;-71
2022/07/08 03:19:08;;;;;;;10.35;2.88;;;12.20;99.90;;;;;;5090910;28;20042;-71
2022/07/08 03:21:34;;;;;;;8.85;2.78;;;12.20;99.90;;;;;;5092674;28;20028;-71
2022/07/08 03:23:59;;;;;;;10.48;3.10;;;12.20;99.90;;;;;;5081378;28;20112;-72
2022/07/08 03:26:25;;;;;;;6.68;2.83;;;12.20;99.90;;;;;;5093801;28;20356;-71
2022/07/08 03:28:51;;;;;;;7.32;3.25;;;12.20;99.90;;;;;;5095082;28;20028;-71
2022/07/08 03:31:16;;;;;;;8.35;2.75;;;12.20;99.90;;;;;;5094508;28;20024;-71
2022/07/08 03:33:42;;;;;;;7.35;2.72;;;12.20;99.90;;;;;;5095309;28;20054;-71
2022/07/08 03:36:08;;;;;;;7.82;2.50;;;12.20;99.90;;;;;;5095039;28;20057;-70
2022/07/08 03:38:35;;;;;;;7.53;2.80;;;12.20;99.90;;;;;;5094936;28;20028;-72
2022/07/08 03:43:46;;;;;;;8.18;2.80;;;12.20;99.90;;;;;;5081677;28;20418;-72
2022/07/08 03:46:11;;;;;;;7.55;3.13;;;12.20;99.90;;;;;;5094513;28;20034;-71
2022/07/08 03:48:37;;;;;;;9.18;2.70;;;12.20;99.90;;;;;;5095107;28;20107;-73
2022/07/08 03:51:02;;;;;;;4.40;2.90;;;12.30;99.90;;;;;;5094835;28;20527;-72
2022/07/08 03:53:28;;;;;;;4.28;2.42;;;12.30;99.90;;;;;;5095068;28;20506;-72
2022/07/08 03:55:54;;;;;;;5.78;2.85;;;12.30;99.90;;;;;;5094927;28;20024;-72
2022/07/08 03:58:20;;;;;;;5.20;2.60;;;11.70;99.90;;;;;;5093975;28;20475;-73
2022/07/08 04:00:46;;;;;;;6.18;2.60;;;12.40;99.90;;;;;;5094718;28;20028;-72
2022/07/08 04:03:12;;;;;;;3.40;2.58;;;12.40;99.90;;;;;;5094815;28;20122;-72
2022/07/08 04:05:38;;;;;;;4.60;2.63;;;12.40;99.90;;;;;;5093610;28;20012;-72
2022/07/08 04:08:04;;;;;;;5.32;2.45;;;12.40;99.90;;;;;;5094932;28;20036;-72
2022/07/08 04:10:29;;;;;;;6.43;2.42;;;12.40;99.90;;;;;;5094658;28;20532;-72
2022/07/08 04:12:55;;;;;;;4.72;2.58;;;12.50;99.90;;;;;;5093733;28;20032;-72
2022/07/08 04:15:21;;;;;;;4.18;2.40;;;12.50;99.90;;;;;;5094669;28;20020;-72
2022/07/08 04:17:47;;;;;;;3.30;2.28;;;12.60;99.90;;;;;;5095069;28;20035;-72
2022/07/08 04:20:12;;;;;;;10.15;2.60;;;12.60;99.90;;;;;;5093493;28;20024;-72
2022/07/08 04:22:38;;;;;;;4.70;2.50;;;12.60;99.90;;;;;;5092956;28;20024;-72
2022/07/08 04:25:05;;;;;;;5.93;2.50;;;12.70;99.90;;;;;;5081155;28;20024;-72
2022/07/08 04:27:31;;;;;;;3.92;2.25;;;12.70;99.90;;;;;;5093533;28;20036;-72
2022/07/08 04:29:56;;;;;;;7.15;2.88;;;12.70;99.90;;;;;;5093583;28;20035;-71
2022/07/08 04:32:22;;;;;;;6.80;2.67;;;12.80;99.90;;;;;;5094073;28;20024;-71
2022/07/08 04:34:51;;;;;;;10.23;2.75;;;12.80;99.90;;;;;;5092680;28;20055;-71
2022/07/08 04:37:17;;;;;;;2.47;1.70;;;12.90;99.90;;;;;;5094193;28;20034;-71
2022/07/08 04:39:43;;;;;;;8.38;2.08;;;12.90;99.90;;;;;;5093937;28;20475;-72
2022/07/08 04:42:09;;;;;;;6.03;2.40;;;13.00;99.90;;;;;;5093110;28;20028;-72
2022/07/08 04:44:35;;;;;;;6.10;2.42;;;13.00;99.90;;;;;;5093775;28;20050;-72
2022/07/08 04:47:00;;;;;;;5.05;2.00;;;13.10;99.90;;;;;;5093070;28;20035;-72
2022/07/08 04:49:26;;;;;;;5.90;2.28;;;13.10;99.90;;;;;;5093814;28;20407;-72
2022/07/08 04:51:51;;;;;;;7.00;2.45;;;13.10;99.90;;;;;;5079327;28;20016;-72
2022/07/08 04:54:17;;;;;;;6.22;2.20;;;13.20;99.90;;;;;;5092950;28;20035;-73
2022/07/08 04:56:42;;;;;;;5.50;2.53;;;13.40;99.90;;;;;;5093593;28;20024;-72
2022/07/08 04:59:08;;;;;;;11.38;2.95;;;13.40;99.90;;;;;;5087220;28;20016;-72
2022/07/08 05:01:34;;;;;;;10.35;2.85;;;13.50;99.90;;;;;;5053911;28;20032;-72
2022/07/08 05:03:59;;;;;;;8.85;2.85;;;13.60;99.90;;;;;;5072625;28;20029;-72
2022/07/08 05:06:28;;;;;;;7.55;2.15;;;13.70;99.90;;;;;;5071979;28;20380;-72
2022/07/08 05:08:53;;;;;;;6.82;2.45;;;13.80;99.90;;;;;;5072655;28;20495;-72
2022/07/08 05:11:19;;;;;;;7.85;2.42;;;13.90;99.90;;;;;;5074580;28;20028;-72
2022/07/08 05:13:44;;;;;;;6.60;2.42;;;14.00;99.90;;;;;;5082854;28;20024;-72
2022/07/08 05:16:10;;;;;;;9.35;3.03;;;14.10;99.90;;;;;;5071324;28;20539;-72
2022/07/08 05:18:36;;;;;;;8.32;1.88;;;14.20;99.90;;;;;;5071930;28;20029;-73
2022/07/08 05:21:02;;;;;;;6.13;1.95;;;14.30;99.90;;;;;;5071773;28;20040;-72
2022/07/08 05:23:27;;;;;;;9.05;2.50;;;14.40;99.90;;;;;;5070995;28;20021;-71
2022/07/08 05:25:53;;;;;;;8.30;2.58;;;14.40;99.90;;;;;;5071537;28;20024;-72
2022/07/08 05:28:18;;;;;;;9.55;2.88;;;14.50;99.90;;;;;;5071459;28;20032;-72
2022/07/08 05:30:44;;;;;;;6.00;2.00;;;14.60;99.90;;;;;;5071149;28;20016;-71
2022/07/08 05:33:09;;;;;;;10.07;2.30;;;14.60;99.90;;;;;;5070503;28;20028;-72
2022/07/08 05:35:35;;;;;;;7.32;2.38;;;14.70;99.90;;;;;;5071237;28;20032;-72
2022/07/08 05:38:04;;;;;;;10.70;3.08;;;14.70;99.90;;;;;;5070653;28;20515;-72
2022/07/08 05:40:29;;;;;;;11.82;2.55;;;14.70;99.90;;;;;;5071181;28;20452;-72
2022/07/08 05:42:55;;;;;;;7.65;2.35;;;14.80;99.90;;;;;;5071028;28;20027;-72
2022/07/08 05:45:20;;;;;;;8.57;2.10;;;14.90;99.90;;;;;;5069372;28;20020;-72
2022/07/08 05:47:46;;;;;;;6.38;2.05;;;15.00;99.90;;;;;;5071484;28;20025;-72
2022/07/08 05:50:12;;;;;;;9.25;1.92;;;15.00;99.90;;;;;;5068949;28;20134;-71
2022/07/08 05:52:37;;;;;;;5.63;2.35;;;15.00;99.90;;;;;;5071452;28;20548;-72
2022/07/08 05:55:03;;;;;;;20.48;3.17;;;15.10;99.90;;;;;;5072568;28;20016;-72
2022/07/08 05:57:29;;;;;;;9.05;2.60;;;15.20;99.90;;;;;;5070680;28;20369;-71
2022/07/08 05:59:54;;;;;;;16.85;3.20;;;15.30;99.90;;;;;;5070828;28;20069;-71
2022/07/08 06:02:20;;;;;;;8.80;2.35;;;15.40;99.90;;;;;;5069739;28;20024;-71
2022/07/08 06:04:45;;;;;;;9.45;3.63;;;15.40;99.90;;;;;;5073381;28;20013;-72
2022/07/08 06:07:11;;;;;;;10.05;2.42;;;15.50;99.90;;;;;;5070610;28;20044;-73
2022/07/08 06:09:37;;;;;;;10.25;2.75;;;15.60;99.90;;;;;;5071069;28;20138;-72
2022/07/08 06:12:03;;;;;;;8.95;2.55;;;15.70;99.90;;;;;;5071166;28;20453;-73
2022/07/08 06:14:29;;;;;;;23.08;3.35;;;15.70;99.90;;;;;;5071377;28;20094;-72
2022/07/08 06:16:55;;;;;;;7.22;2.47;;;15.90;99.90;;;;;;5070720;28;20472;-72
2022/07/08 06:19:22;;;;;;;10.00;2.35;;;16.00;99.90;;;;;;5070482;28;20008;-73
2022/07/08 06:21:48;;;;;;;8.30;2.47;;;16.10;99.90;;;;;;5070859;28;20031;-72
2022/07/08 06:24:13;;;;;;;9.02;2.55;;;16.20;99.90;;;;;;5070569;28;20073;-72
2022/07/08 06:26:39;;;;;;;8.25;2.40;;;16.30;99.90;;;;;;5070055;28;20074;-73
2022/07/08 06:29:04;;;;;;;11.57;2.38;;;16.50;99.90;;;;;;5070719;28;20029;-72
2022/07/08 06:31:30;;;;;;;11.40;2.33;;;16.70;99.90;;;;;;5073531;28;20360;-72
2022/07/08 06:33:56;;;;;;;8.35;1.83;;;16.80;99.90;;;;;;5073012;28;20032;-72
2022/07/08 06:36:25;;;;;;;11.55;2.38;;;16.90;99.90;;;;;;5070622;28;20075;-71
2022/07/08 06:38:52;;;;;;;10.32;2.20;;;17.00;99.90;;;;;;5070472;28;20028;-72
2022/07/08 06:41:18;;;;;;;10.73;1.80;;;17.10;99.90;;;;;;5068953;28;20102;-72
2022/07/08 06:43:44;;;;;;;12.05;1.70;;;17.20;99.90;;;;;;5070541;28;20047;-72
2022/07/08 06:46:10;;;;;;;9.32;2.20;;;17.20;99.90;;;;;;5073322;28;20017;-73
2022/07/08 06:48:36;;;;;;;9.10;2.38;;;17.30;99.90;;;;;;5073387;28;20039;-73
2022/07/08 06:51:07;;;;;;;9.52;2.00;;;17.30;99.90;;;;;;5070457;28;20031;-72
2022/07/08 06:56:17;;;;;;;9.18;2.17;;;17.40;99.90;;;;;;5078928;28;20035;-73
2022/07/08 06:58:43;;;;;;;8.80;2.05;;;17.40;99.90;;;;;;5074691;28;20187;-73
2022/07/08 07:01:10;;;;;;;9.25;2.65;;;18.20;99.90;;;;;;5076949;28;20024;-74
2022/07/08 07:03:36;;;;;;;11.07;2.72;;;17.50;99.90;;;;;;5074746;28;20028;-74
2022/07/08 07:06:01;;;;;;;11.15;2.80;;;17.50;99.90;;;;;;5077037;28;20049;-73
2022/07/08 07:08:27;;;;;;;9.73;1.92;;;17.60;99.90;;;;;;5073865;28;20044;-73
2022/07/08 07:10:52;;;;;;;9.23;2.53;;;17.70;99.90;;;;;;5075284;28;20099;-73
2022/07/08 07:13:18;;;;;;;12.98;2.40;;;17.70;99.90;;;;;;5075514;28;20052;-74
2022/07/08 07:15:43;;;;;;;8.23;2.78;;;17.80;99.90;;;;;;5075012;28;20047;-73
2022/07/08 07:18:09;;;;;;;10.60;2.05;;;17.90;99.90;;;;;;5075227;28;20515;-74
2022/07/08 07:20:34;;;;;;;12.48;2.13;;;17.90;99.90;;;;;;5073984;28;20048;-73
2022/07/08 07:23:00;;;;;;;14.52;2.47;;;18.00;99.90;;;;;;5073057;28;20028;-73
2022/07/08 07:25:26;;;;;;;16.05;2.67;;;18.10;99.90;;;;;;5085975;28;20152;-72
2022/07/08 07:27:51;;;;;;;10.20;3.40;;;18.20;99.90;;;;;;5079818;28;20052;-73
2022/07/08 07:30:19;;;;;;;9.80;2.67;;;18.20;99.90;;;;;;5075290;28;20071;-75
2022/07/08 07:32:45;;;;;;;5.75;1.85;;;18.30;99.90;;;;;;5075280;28;20021;-73
2022/07/08 07:35:10;;;;;;;7.72;2.65;;;18.30;99.90;;;;;;5075004;28;20030;-73
2022/07/08 07:37:40;;;;;;;4.72;2.22;;;18.30;99.90;;;;;;5075942;28;20059;-73
2022/07/08 07:40:07;;;;;;;7.77;2.03;;;18.30;99.90;;;;;;5075450;28;20020;-74
2022/07/08 07:42:32;;;;;;;10.07;2.58;;;18.30;99.90;;;;;;5075788;28;20032;-74
2022/07/08 07:44:58;;;;;;;7.35;2.83;;;18.30;99.90;;;;;;5074731;28;20409;-75
2022/07/08 07:47:23;;;;;;;15.40;2.90;;;18.40;99.90;;;;;;5075828;28;20116;-73
2022/07/08 07:49:50;;;;;;;10.25;3.28;;;18.40;99.90;;;;;;5075939;28;20111;-74
2022/07/08 07:52:15;;;;;;;9.05;2.08;;;18.40;99.90;;;;;;5080181;28;20027;-74
2022/07/08 07:54:41;;;;;;;11.63;3.10;;;18.40;99.90;;;;;;5084683;28;20036;-75
2022/07/08 07:57:07;;;;;;;21.10;6.55;;;18.30;99.90;;;;;;5080077;28;20503;-75
2022/07/08 07:59:32;;;;;;;14.18;4.72;;;18.20;99.90;;;;;;5078771;28;20059;-74
2022/07/08 08:01:59;;;;;;;7.60;2.28;;;18.20;99.90;;;;;;5075475;28;20048;-75
2022/07/08 08:04:24;;;;;;;14.02;2.03;;;18.20;99.90;;;;;;5074666;28;20426;-75
2022/07/08 08:06:50;;;;;;;6.45;1.70;;;18.20;99.90;;;;;;5073874;28;20123;-75
2022/07/08 08:09:16;;;;;;;10.68;3.22;;;18.30;99.90;;;;;;5073799;28;20024;-75
2022/07/08 08:11:41;;;;;;;10.20;1.98;;;18.40;99.90;;;;;;5074211;28;20099;-74
2022/07/08 08:14:07;;;;;;;8.52;2.25;;;18.40;99.90;;;;;;5074353;28;20472;-74
2022/07/08 08:16:32;;;;;;;11.30;2.65;;;18.40;99.90;;;;;;5074651;28;20472;-74
2022/07/08 08:18:58;;;;;;;6.97;2.08;;;18.50;99.90;;;;;;5073616;28;20032;-74
2022/07/08 08:21:24;;;;;;;11.95;2.13;;;18.60;99.90;;;;;;5074807;28;20024;-73
2022/07/08 08:23:50;;;;;;;9.00;1.80;;;18.50;99.90;;;;;;5055822;28;20027;-74
2022/07/08 08:26:16;;;;;;;5.20;1.92;;;18.60;99.90;;;;;;5090728;28;20035;-74
2022/07/08 08:28:42;;;;;;;5.75;1.88;;;18.60;99.90;;;;;;5094624;28;20036;-74
2022/07/08 08:31:07;;;;;;;10.50;2.13;;;18.60;99.90;;;;;;5094276;28;20028;-74
2022/07/08 08:33:33;;;;;;;9.23;2.05;;;18.70;99.90;;;;;;5091506;28;20494;-70
2022/07/08 08:36:00;;;;;;;12.90;3.10;;;18.70;99.90;;;;;;5080907;28;20031;-70
2022/07/08 08:38:25;;;;;;;7.30;2.05;;;18.80;99.90;;;;;;5095612;28;20052;-76
2022/07/08 08:40:57;;;;;;;4.38;1.33;;;18.80;99.90;;;;;;5094257;28;20349;-77
2022/07/08 08:43:22;;;;;;;6.38;1.65;;;18.80;99.90;;;;;;5084179;28;20084;-76
2022/07/08 08:45:49;;;;;;;5.63;2.83;;;18.80;99.90;;;;;;5080462;28;20413;-75
2022/07/08 08:48:17;;;;;;;6.03;2.22;;;18.90;99.90;;;;;;5083351;28;20063;-77
2022/07/08 08:50:55;;;;;;;4.63;1.75;;;18.90;99.90;;;;;;5087104;28;20055;-75
2022/07/08 08:53:28;;;;;;;5.47;1.75;;;19.00;99.90;;;;;;5075125;28;20430;-76
2022/07/08 08:55:55;;;;;;;12.68;1.70;;;19.10;99.90;;;;;;5083821;28;20091;-74
2022/07/08 08:58:21;;;;;;;7.22;2.00;;;19.20;99.90;;;;;;5080222;28;20055;-75
2022/07/08 09:00:47;;;;;;;4.95;1.63;;;19.30;99.90;;;;;;5073589;28;20025;-74
2022/07/08 09:03:13;;;;;;;10.20;1.67;;;19.40;99.90;;;;;;5074512;28;20020;-73
2022/07/08 09:05:38;;;;;;;6.95;1.60;;;19.40;99.90;;;;;;5074121;28;20484;-73
2022/07/08 09:08:04;;;;;;;6.75;1.77;;;19.50;99.90;;;;;;5072964;28;20032;-76
2022/07/08 09:10:30;;;;;;;5.15;1.70;;;19.60;99.90;;;;;;5076184;28;20052;-75
2022/07/08 09:13:13;;;;;;;6.85;2.10;;;19.60;99.90;;;;;;5079408;28;20107;-76
2022/07/08 09:15:43;;;;;;;6.45;1.85;;;19.80;99.90;;;;;;5074374;28;20039;-75
2022/07/08 09:18:15;;;;;;;5.78;1.50;;;19.80;99.90;;;;;;5073884;28;20020;-76
2022/07/08 09:20:41;;;;;;;5.03;1.92;;;19.80;99.90;;;;;;5055814;28;20027;-76
2022/07/08 09:23:35;;;;;;;10.38;3.53;;;19.90;99.90;;;;;;5072394;28;20020;-75
2022/07/08 09:26:02;;;;;;;5.25;1.58;;;20.00;99.90;;;;;;5086318;28;20464;-74
2022/07/08 09:28:31;;;;;;;4.20;1.40;;;20.00;99.90;;;;;;5073098;28;20043;-76
2022/07/08 09:30:58;;;;;;;7.47;1.80;;;20.00;99.90;;;;;;5073100;28;20017;-76
2022/07/08 09:33:25;;;;;;;10.68;3.95;;;20.10;99.90;;;;;;5073257;28;20039;-76
2022/07/08 09:35:51;;;;;;;6.43;2.95;;;20.10;99.90;;;;;;5074960;28;20082;-76
2022/07/08 09:38:21;;;;;;;2.70;1.73;;;20.10;99.90;;;;;;5073263;28;20017;-77
2022/07/08 09:41:09;;;;;;;8.13;2.28;;;20.20;99.90;;;;;;5073665;28;20032;-76
2022/07/08 09:43:44;;;;;;;6.65;1.73;;;20.30;99.90;;;;;;5075760;28;20025;-76
2022/07/08 09:46:13;;;;;;;10.13;1.42;;;20.50;99.90;;;;;;5074835;28;20551;-75
2022/07/08 09:48:39;;;;;;;6.07;1.60;;;20.50;99.90;;;;;;5072726;28;20044;-77
2022/07/08 09:51:09;;;;;;;3.42;1.40;;;20.60;99.90;;;;;;5073595;28;20047;-77
2022/07/08 09:53:36;;;;;;;8.05;1.80;;;20.60;99.90;;;;;;5078965;28;20044;-76
2022/07/08 09:56:03;;;;;;;5.07;1.60;;;20.70;99.90;;;;;;5074107;28;20032;-78
2022/07/08 09:58:32;;;;;;;9.20;1.95;;;20.70;99.90;;;;;;5073863;28;20031;-76
2022/07/08 10:01:00;;;;;;;5.28;1.83;;;20.70;99.90;;;;;;5076257;28;20048;-75
2022/07/08 10:03:25;;;;;;;6.25;1.77;;;20.80;99.90;;;;;;5072551;28;20028;-77
2022/07/08 10:05:51;;;;;;;5.25;1.50;;;20.80;99.90;;;;;;5073230;28;20019;-77
2022/07/08 10:08:18;;;;;;;7.10;1.95;;;20.90;99.90;;;;;;5072663;28;20033;-77
2022/07/08 10:10:45;;;;;;;3.35;1.50;;;20.90;99.90;;;;;;5072647;28;20574;-76
2022/07/08 10:13:11;;;;;;;5.95;1.40;;;20.90;99.90;;;;;;5074881;28;20024;-75
2022/07/08 10:15:38;;;;;;;4.35;1.83;;;20.90;99.90;;;;;;5074558;28;20035;-76
2022/07/08 10:18:25;;;;;;;8.10;1.67;;;21.10;99.90;;;;;;5072179;28;20025;-76
2022/07/08 10:20:54;;;;;;;4.70;1.60;;;21.20;99.90;;;;;;5073537;28;20017;-76
2022/07/08 10:23:27;;;;;;;6.50;2.42;;;21.20;99.90;;;;;;5074138;28;20055;-76
2022/07/08 10:25:55;;;;;;;6.13;1.42;;;21.20;99.90;;;;;;5076487;28;20460;-76
2022/07/08 10:28:37;;;;;;;4.15;1.52;;;21.30;99.90;;;;;;5072960;28;20434;-76
2022/07/08 10:31:02;;;;;;;3.85;1.63;;;21.50;99.90;;;;;;5080503;28;20028;-76
2022/07/08 10:33:30;;;;;;;9.00;2.50;;;21.50;99.90;;;;;;5077104;28;20028;-77
2022/07/08 10:36:08;;;;;;;5.03;1.70;;;21.60;99.90;;;;;;5074403;28;20138;-76
2022/07/08 10:38:40;;;;;;;4.38;1.73;;;21.60;99.90;;;;;;5084124;28;20020;-76
2022/07/08 10:41:10;;;;;;;6.40;1.98;;;21.50;99.90;;;;;;5076807;28;20028;-77
2022/07/08 10:43:51;;;;;;;4.57;1.88;;;21.50;99.90;;;;;;5078605;28;20043;-78
2022/07/08 10:46:18;;;;;;;6.15;1.88;;;21.60;99.90;;;;;;5090791;28;20092;-76
2022/07/08 10:48:52;;;;;;;4.93;1.50;;;21.70;99.90;;;;;;5084358;28;20483;-77
2022/07/08 10:51:20;;;;;;;3.88;1.70;;;21.90;99.90;;;;;;5082986;28;21258;-77
2022/07/08 10:53:47;;;;;;;3.45;1.50;;;21.90;99.90;;;;;;5085408;28;20099;-77
2022/07/08 10:56:33;;;;;;;3.75;2.03;;;21.90;99.90;;;;;;5078916;28;20024;-78
2022/07/08 10:59:31;;;;;;;5.32;2.15;;;21.90;99.90;;;;;;5084516;28;20024;-77
2022/07/08 11:02:05;;;;;;;6.25;1.73;;;22.00;99.90;;;;;;5082004;28;20491;-78
2022/07/08 11:04:37;;;;;;;10.00;2.67;;;22.00;99.90;;;;;;5082592;28;20039;-77
2022/07/08 11:07:22;;;;;;;6.20;2.78;;;22.10;99.90;;;;;;5080407;28;20058;-77
2022/07/08 11:09:50;;;;;;;7.53;1.92;;;22.20;99.90;;;;;;5084380;28;20357;-77
2022/07/08 11:12:17;;;;;;;4.63;1.70;;;22.20;99.90;;;;;;5073784;28;20306;-77
2022/07/08 11:14:48;;;;;;;6.88;2.20;;;22.30;99.90;;;;;;5081849;28;20471;-77
2022/07/08 11:17:17;;;;;;;;;;;22.40;99.90;;;;;;5075877;28;20020;-77
2022/07/08 11:19:44;;;;;;;6.13;1.90;;;22.40;99.90;;;;;;5072395;28;19954;-77
2022/07/08 11:22:11;;;;;;;8.85;1.90;;;22.40;99.90;;;;;;5085288;28;20025;-77
2022/07/08 11:24:41;;;;;;;4.38;1.85;;;22.50;99.90;;;;;;5075713;28;20468;-76
2022/07/08 11:27:07;;;;;;;5.10;1.67;;;22.60;99.90;;;;;;5092470;28;20150;-77
2022/07/08 11:29:33;;;;;;;6.97;2.35;;;22.60;99.90;;;;;;5092521;28;20051;-77
2022/07/08 11:32:02;;;;;;;11.05;2.85;;;22.60;99.90;;;;;;5093982;28;20016;-77
2022/07/08 11:34:28;;;;;;;5.32;1.52;;;22.70;99.90;;;;;;5080606;28;20039;-79
2022/07/08 11:36:57;;;;;;;4.38;1.60;;;22.70;99.90;;;;;;5094195;28;20095;-77
2022/07/08 11:39:23;;;;;;;3.03;1.50;;;22.90;99.50;;;;;;5092235;28;20028;-78
2022/07/08 11:41:49;;;;;;;4.10;1.70;;;22.90;99.30;;;;;;5091928;28;20024;-76
2022/07/08 11:44:21;;;;;;;2.72;1.27;;;22.90;98.50;;;;;;5096383;28;20043;-77
2022/07/08 11:46:49;;;;;;;2.10;1.02;;;23.00;97.70;;;;;;5096028;28;20509;-77
2022/07/08 11:49:16;;;;;;;1.80;1.33;;;23.00;97.90;;;;;;5084331;28;20154;-77
2022/07/08 11:51:46;;;;;;;3.95;1.70;;;23.00;97.60;;;;;;5091572;28;20024;-78
2022/07/08 11:54:13;;;;;;;5.65;1.55;;;23.00;97.50;;;;;;5095678;28;20035;-78
2022/07/08 11:56:39;;;;;;;2.60;1.65;;;23.10;97.90;;;;;;5094742;28;20052;-78
2022/07/08 11:59:04;;;;;;;4.13;1.33;;;23.10;97.00;;;;;;5095371;28;20066;-78
2022/07/08 12:01:30;;;;;;;1.42;1.05;;;23.10;97.50;;;;;;5077143;28;20020;-77
2022/07/08 12:03:57;;;;;;;2.83;1.10;;;23.20;96.90;;;;;;5074511;28;20031;-79
2022/07/08 12:06:24;;;;;;;3.95;1.27;;;23.20;96.40;;;;;;5075641;28;20120;-76
2022/07/08 12:08:50;;;;;;;5.55;1.00;;;23.20;97.90;;;;;;5075015;28;20073;-76
2022/07/08 12:11:21;;;;;;;3.58;1.30;;;23.30;97.90;;;;;;5075068;28;20046;-76
2022/07/08 12:13:49;;;;;;;3.60;1.17;;;23.50;96.90;;;;;;5075084;28;20035;-76
2022/07/08 12:16:32;;;;;;;2.47;1.20;;;23.50;96.70;;;;;;5074995;28;20028;-76
2022/07/08 12:18:59;;;;;;;2.22;1.23;;;23.50;97.20;;;;;;5074322;28;20020;-77
2022/07/08 12:21:24;;;;;;;3.15;1.27;;;23.60;97.40;;;;;;5075255;28;20082;-75
2022/07/08 12:23:57;;;;;;;3.65;1.40;;;23.70;97.60;;;;;;5074576;28;20064;-75
2022/07/08 12:26:24;;;;;;;5.40;1.50;;;23.70;96.80;;;;;;5092720;28;20030;-78
2022/07/08 12:28:50;;;;;;;3.25;1.20;;;23.70;96.60;;;;;;5094539;28;20070;-77
2022/07/08 12:31:39;;;;;;;2.78;1.10;;;23.70;96.60;;;;;;5094278;28;20051;-77
2022/07/08 12:34:07;;;;;;;7.18;1.50;;;23.70;95.40;;;;;;5094494;28;20027;-76
2022/07/08 12:36:33;;;;;;;3.75;1.23;;;23.70;95.70;;;;;;5094334;28;20409;-76
2022/07/08 12:39:15;;;;;;;1.95;1.17;;;23.60;94.90;;;;;;5093281;28;20134;-76
2022/07/08 12:41:41;;;;;;;3.40;1.10;;;23.60;95.60;;;;;;5093898;28;20031;-76
2022/07/08 12:44:34;;;;;;;1.42;1.13;;;23.80;96.00;;;;;;5094382;28;20028;-76
2022/07/08 12:47:02;;;;;;;3.90;1.20;;;23.80;95.30;;;;;;5094027;28;20409;-76
2022/07/08 12:49:29;;;;;;;2.08;0.93;;;23.80;95.30;;;;;;5096945;28;20063;-76
2022/07/08 12:51:56;;;;;;;3.72;1.10;;;23.90;95.10;;;;;;5094016;28;20098;-76
2022/07/08 12:54:22;;;;;;;4.72;1.67;;;23.90;95.20;;;;;;5092907;28;20451;-77